Aérodrome :
LOGIN :

S'inscrire | Disclaimer

   EN    FR    IT 

 










Légende :    VFR   VFR Marginal   IFR   IFR Intensif   IFR Très Intensif
Visi : 
Plafond : 
>= 8 km
>= 3000ft
5 à 8 km
1000 à 3000 ft
1500m à 5 km
500 à 1000 ft
800 à 1500m
200 à 500 ft
< 800m
< 200 ft
Symboles :   Orages  Brouillard  Fortes neiges  Fortes précipitations  Vent > 20 kt
SIGMETs :   Divers  Orages  Givrage  Turbulence  Onde Orograph.  Cendres Volcan.







- Altitude de l'aérodrome : 1470 ft


LSMD - Dubendorf Military

DERNIER METAR :
  • 130450Z AUTO VRB02KT 8000NDV SCT001 SCT100 05/05 Q1024 RMK

METARs EXPIRÉS :
  • 130420Z AUTO VRB02KT 0900NDV R11/0900VP2000U R29/P2000N FEW002 05/05 Q1024 RMK
  • 130350Z AUTO 00000KT 0300NDV R11/0300N R29/0800VP2000U FG FEW002 06/06 Q1024 RMK
  • 130320Z AUTO 12002KT 0350NDV R11/0375N R29/0375N FG VV001 06/06 Q1024 RMK
  • 130250Z AUTO 12003KT 0350NDV R11/0400V0600D R29/0450V0550N FG VV001 06/06 Q1023 RMK
  • 130220Z AUTO 11002KT 0600NDV R11/0750N R29/0900V1800N BCFG VV001 06/05 Q1023 RMK
  • 130150Z AUTO 14002KT 0500NDV R11/0400V0600N R29/0650V0800D FG SCT001 05/05 Q1023 RMK

Prévision TAF périmée.
Pas de NOTAMs connus pour ce terrain.



MET'MAP, la Météo Aéronautique d'un coup d'oeil ! - Copyright ORBIFLY Décembre 2007 - Disclaimer

ORBIFLY MET'MAP TEAM :

Programmation & Développement : Alexandra Zaïnal
Conception & Développement : Baudouin d'Aumeries
Co-Programmation & Développement : Marc-Olivier Méhu
Soutien technique & logistique : Manuel Goepfert

Contact : metmap@orbifly.com




SOURCES & CREDITS :

   NOAA